Hyde, United Kingdom
Current Conditions -  °F | °C
As of 1:50 PM on Wednesday 28 Jan 2015 (Local Time) from EGCC Reporting Station
Light Rain Light Rain  
Wind Chill: 28°   Ceiling: 3300
Heat Index: 39°   Visibility: 6mi
Dew Point: 32°   Wind: 25mph
Humidity: 75%   Direction: 280°W
Pressure: 29.44"   Gusts: 45mph
Location:  53.45°N, 2.08°W
Report Text: EGCC 281350Z 28022G39KT 9999 -RA SCT026CB BKN033 BKN038 04/M00 Q0997 RESN TEMPO SHRASN
Loading
Personal Weather Stations






























Interactive Weather Map New forecast layout! Learn more

10-Day Weather Forecast

Advertisements
Track Severe Weather on mobile